createdAt,value
2022-09-20T00:00:00.313Z,32.1
2022-09-20T00:01:00.369Z,32.0
2022-09-20T00:02:00.561Z,31.9
2022-09-20T00:03:00.313Z,31.7
2022-09-20T00:04:00.288Z,31.7
2022-09-20T00:05:00.378Z,31.7
2022-09-20T00:06:00.308Z,32.2
2022-09-20T00:07:00.304Z,32.1
2022-09-20T00:08:00.452Z,32.2
2022-09-20T00:09:00.463Z,32.6
2022-09-20T00:10:00.304Z,32.6
2022-09-20T00:11:00.302Z,32.8
2022-09-20T00:12:00.324Z,32.9
2022-09-20T00:13:00.309Z,33.1
2022-09-20T00:14:00.508Z,33.2
2022-09-20T00:15:00.293Z,33.4
2022-09-20T00:16:00.303Z,33.5
2022-09-20T00:17:00.420Z,33.6
2022-09-20T00:18:00.304Z,33.8
2022-09-20T00:19:00.313Z,33.9
2022-09-20T00:20:00.452Z,33.9
2022-09-20T00:21:00.315Z,34.3
2022-09-20T00:22:00.315Z,34.8
2022-09-20T00:23:00.285Z,35.2
2022-09-20T00:24:00.346Z,35.2
2022-09-20T00:25:00.539Z,35.5
2022-09-20T00:26:00.415Z,35.5
2022-09-20T00:27:00.383Z,35.4
2022-09-20T00:28:00.326Z,35.6
2022-09-20T00:29:00.384Z,35.6
2022-09-20T00:30:00.295Z,35.7
2022-09-20T00:31:00.342Z,35.7
2022-09-20T00:32:00.544Z,35.7
2022-09-20T00:33:00.306Z,36.0
2022-09-20T00:34:00.318Z,36.1
2022-09-20T00:35:00.283Z,36.6
2022-09-20T00:36:00.322Z,36.9
2022-09-20T00:37:00.273Z,37.0
2022-09-20T00:38:00.671Z,37.2
2022-09-20T00:39:00.338Z,37.0
2022-09-20T00:40:00.436Z,37.0
2022-09-20T00:41:00.336Z,37.0
2022-09-20T00:42:00.311Z,37.1
2022-09-20T00:43:00.314Z,37.5
2022-09-20T00:44:00.542Z,37.7
2022-09-20T00:45:00.302Z,37.6
2022-09-20T00:46:00.327Z,37.9
2022-09-20T00:47:00.316Z,38.0
2022-09-20T00:48:00.299Z,38.0
2022-09-20T00:49:00.302Z,38.0
2022-09-20T00:50:00.458Z,38.6
2022-09-20T00:51:00.341Z,38.3
2022-09-20T00:52:00.316Z,38.5
2022-09-20T00:53:00.303Z,38.8
2022-09-20T00:54:00.305Z,38.8
2022-09-20T00:55:00.305Z,38.5
2022-09-20T00:56:00.474Z,38.7
2022-09-20T00:57:00.320Z,38.5
2022-09-20T00:58:00.298Z,38.8
2022-09-20T00:59:00.310Z,38.6
2022-09-20T01:00:00.317Z,38.8
2022-09-20T01:01:00.352Z,39.2
2022-09-20T01:02:00.538Z,39.1
2022-09-20T01:03:00.349Z,39.2
2022-09-20T01:04:00.391Z,39.6
2022-09-20T01:05:00.311Z,39.8
2022-09-20T01:06:00.295Z,39.8
2022-09-20T01:07:00.284Z,39.7
2022-09-20T01:08:00.441Z,39.8
2022-09-20T01:09:00.314Z,39.8
2022-09-20T01:10:00.311Z,39.9
2022-09-20T01:11:00.434Z,40.0
2022-09-20T01:12:00.307Z,39.9
2022-09-20T01:13:00.304Z,40.3
2022-09-20T01:14:00.527Z,40.1
2022-09-20T01:15:00.294Z,40.4
2022-09-20T01:16:00.300Z,40.3
2022-09-20T01:17:00.374Z,40.2
2022-09-20T01:18:00.299Z,40.4
2022-09-20T01:19:00.311Z,40.3
2022-09-20T01:20:00.428Z,40.2
2022-09-20T01:21:00.310Z,40.1
2022-09-20T01:22:00.293Z,40.1
2022-09-20T01:23:00.336Z,40.2
2022-09-20T01:24:00.348Z,40.0
2022-09-20T01:25:00.298Z,40.0
2022-09-20T01:26:00.516Z,39.8
2022-09-20T01:27:00.293Z,39.8
2022-09-20T01:28:00.313Z,40.0
2022-09-20T01:29:00.348Z,40.0
2022-09-20T01:30:00.309Z,40.0
2022-09-20T01:31:00.353Z,40.1
2022-09-20T01:32:00.517Z,40.1
2022-09-20T01:33:00.317Z,40.1
2022-09-20T01:34:00.298Z,39.9
2022-09-20T01:35:00.311Z,39.8
2022-09-20T01:36:00.318Z,40.2
2022-09-20T01:37:00.300Z,40.4
2022-09-20T01:38:00.431Z,40.4
2022-09-20T01:39:00.296Z,40.3
2022-09-20T01:40:00.398Z,40.4
2022-09-20T01:41:00.423Z,40.5
2022-09-20T01:42:00.337Z,40.4
2022-09-20T01:43:00.309Z,40.3
2022-09-20T01:44:00.598Z,40.3
2022-09-20T01:45:00.295Z,40.2
2022-09-20T01:46:00.374Z,40.2
2022-09-20T01:47:00.290Z,40.3
2022-09-20T01:48:00.298Z,40.2
2022-09-20T01:49:00.310Z,40.4
2022-09-20T01:50:00.483Z,40.4
2022-09-20T01:51:00.371Z,40.2
2022-09-20T01:52:00.314Z,40.3
2022-09-20T01:53:00.346Z,40.2
2022-09-20T01:54:00.304Z,40.0
2022-09-20T01:55:00.313Z,39.8
2022-09-20T01:56:00.567Z,39.7
2022-09-20T01:57:00.323Z,39.6
2022-09-20T01:58:00.347Z,39.5
2022-09-20T01:59:19.916Z,39.4
2022-09-20T02:00:00.364Z,39.1
2022-09-20T02:01:00.399Z,39.2
2022-09-20T02:02:00.535Z,39.0
2022-09-20T02:03:00.362Z,38.9
2022-09-20T02:04:00.381Z,38.7
2022-09-20T02:05:00.347Z,38.6
2022-09-20T02:06:00.336Z,38.6
2022-09-20T02:07:00.298Z,38.7
2022-09-20T02:08:00.626Z,38.8
2022-09-20T02:09:00.312Z,38.7
2022-09-20T02:10:00.323Z,38.7
2022-09-20T02:11:00.406Z,38.7
2022-09-20T02:12:00.322Z,38.6
2022-09-20T02:13:00.353Z,38.5
2022-09-20T02:14:00.518Z,38.7
2022-09-20T02:15:00.329Z,38.5
2022-09-20T02:16:00.305Z,38.5
2022-09-20T02:17:00.348Z,38.4
2022-09-20T02:18:00.317Z,38.4
2022-09-20T02:19:00.392Z,38.5
2022-09-20T02:20:00.464Z,38.5
2022-09-20T02:21:00.334Z,38.5
2022-09-20T02:22:00.313Z,38.7
2022-09-20T02:23:00.426Z,38.7
2022-09-20T02:24:00.297Z,38.9
2022-09-20T02:25:00.368Z,39.0
2022-09-20T02:26:00.496Z,39.1
2022-09-20T02:27:00.553Z,39.1
2022-09-20T02:28:00.331Z,39.1
2022-09-20T02:29:00.288Z,39.2
2022-09-20T02:30:00.285Z,39.3
2022-09-20T02:31:00.294Z,39.4
2022-09-20T02:32:00.523Z,39.4
2022-09-20T02:33:00.304Z,39.4
2022-09-20T02:34:00.306Z,39.4
2022-09-20T02:35:00.300Z,39.5
2022-09-20T02:36:00.318Z,39.5
2022-09-20T02:37:00.296Z,39.5
2022-09-20T02:38:00.479Z,39.6
2022-09-20T02:39:00.317Z,39.7
2022-09-20T02:40:00.399Z,39.7
2022-09-20T02:41:00.304Z,39.6
2022-09-20T02:42:00.340Z,39.5
2022-09-20T02:43:00.447Z,39.4
2022-09-20T02:44:00.558Z,39.2
2022-09-20T02:45:00.299Z,39.2
2022-09-20T02:46:00.387Z,39.4
2022-09-20T02:47:00.293Z,39.2
2022-09-20T02:48:00.316Z,39.2
2022-09-20T02:49:00.316Z,39.2
2022-09-20T02:50:00.474Z,39.2
2022-09-20T02:51:00.314Z,39.2
2022-09-20T02:52:00.291Z,39.2
2022-09-20T02:53:00.314Z,39.2
2022-09-20T02:54:00.331Z,39.2
2022-09-20T02:55:00.363Z,38.9
2022-09-20T02:56:00.514Z,39.0
2022-09-20T02:57:00.304Z,39.2
2022-09-20T02:58:00.361Z,38.9
2022-09-20T02:59:00.452Z,38.8
2022-09-20T03:00:00.327Z,38.7
2022-09-20T03:01:00.322Z,38.7
2022-09-20T03:02:00.513Z,38.8
2022-09-20T03:03:00.315Z,38.7
2022-09-20T03:04:00.350Z,38.8
2022-09-20T03:05:00.288Z,39.0
2022-09-20T03:06:00.304Z,38.8
2022-09-20T03:07:00.288Z,38.5
2022-09-20T03:08:03.001Z,38.3
2022-09-20T03:09:00.275Z,38.5
2022-09-20T03:10:00.291Z,38.5
2022-09-20T03:11:00.308Z,38.0
2022-09-20T03:12:00.327Z,38.0
2022-09-20T03:13:00.295Z,38.1
2022-09-20T03:14:00.491Z,38.0
2022-09-20T03:15:00.314Z,38.1
2022-09-20T03:16:00.302Z,37.8
2022-09-20T03:17:00.356Z,38.1
2022-09-20T03:18:00.290Z,37.9
2022-09-20T03:19:00.292Z,37.5
2022-09-20T03:20:00.461Z,37.4
2022-09-20T03:21:00.303Z,37.4
2022-09-20T03:22:00.275Z,37.6
2022-09-20T03:23:00.300Z,37.6
2022-09-20T03:24:00.293Z,37.6
2022-09-20T03:25:00.286Z,37.4
2022-09-20T03:26:00.458Z,36.9
2022-09-20T03:27:00.303Z,36.9
2022-09-20T03:28:00.309Z,36.8
2022-09-20T03:29:00.406Z,36.3
2022-09-20T03:30:00.314Z,36.3
2022-09-20T03:31:00.298Z,36.4
2022-09-20T03:32:00.491Z,36.4
2022-09-20T03:33:00.296Z,36.5
2022-09-20T03:34:00.350Z,36.5
2022-09-20T03:35:00.314Z,36.1
2022-09-20T03:36:00.303Z,35.6
2022-09-20T03:37:00.294Z,35.4
2022-09-20T03:38:00.506Z,35.3
2022-09-20T03:39:00.312Z,35.3
2022-09-20T03:40:00.445Z,35.1
2022-09-20T03:41:00.334Z,35.3
2022-09-20T03:42:00.299Z,35.0
2022-09-20T03:43:00.283Z,35.2
2022-09-20T03:44:00.689Z,35.4
2022-09-20T03:45:00.294Z,35.2
2022-09-20T03:46:00.363Z,34.9
2022-09-20T03:47:00.285Z,34.9
2022-09-20T03:48:00.272Z,34.7
2022-09-20T03:49:00.300Z,35.0
2022-09-20T03:50:00.421Z,34.7
2022-09-20T03:51:00.299Z,34.7
2022-09-20T03:52:00.299Z,34.8
2022-09-20T03:53:00.295Z,35.0
2022-09-20T03:54:00.356Z,35.1
2022-09-20T03:55:00.314Z,35.0
2022-09-20T03:56:00.421Z,34.6
2022-09-20T03:57:00.294Z,34.8
2022-09-20T03:58:00.332Z,34.7
2022-09-20T03:59:00.516Z,34.7
2022-09-20T04:00:00.292Z,34.6
2022-09-20T04:01:00.351Z,34.6
2022-09-20T04:02:00.494Z,34.7
2022-09-20T04:03:00.298Z,34.3
2022-09-20T04:04:00.297Z,34.7
2022-09-20T04:05:00.320Z,34.7
2022-09-20T04:06:00.299Z,34.9
2022-09-20T04:07:00.302Z,34.7
2022-09-20T04:08:00.456Z,34.6
2022-09-20T04:09:00.323Z,34.7
2022-09-20T04:10:00.331Z,34.6
2022-09-20T04:11:00.282Z,34.6
2022-09-20T04:12:00.281Z,34.6
2022-09-20T04:13:00.311Z,34.7
2022-09-20T04:14:00.472Z,34.6
2022-09-20T04:15:00.507Z,34.5
2022-09-20T04:16:00.325Z,34.5
2022-09-20T04:17:00.432Z,34.3
2022-09-20T04:18:00.333Z,34.1
2022-09-20T04:19:00.310Z,34.0
2022-09-20T04:20:00.426Z,33.6
2022-09-20T04:21:00.282Z,33.7
2022-09-20T04:22:00.285Z,33.4
2022-09-20T04:23:00.313Z,33.2
2022-09-20T04:24:00.311Z,33.1
2022-09-20T04:25:00.308Z,33.1
2022-09-20T04:26:00.434Z,33.1
2022-09-20T04:27:00.307Z,32.7
2022-09-20T04:28:00.318Z,32.4
2022-09-20T04:29:00.311Z,32.3
2022-09-20T04:30:00.455Z,32.4
2022-09-20T04:31:00.282Z,32.2
2022-09-20T04:32:00.465Z,32.1
2022-09-20T04:33:00.284Z,31.8
2022-09-20T04:34:00.311Z,31.8
2022-09-20T04:35:00.312Z,31.6
2022-09-20T04:36:00.299Z,31.6
2022-09-20T04:37:00.382Z,31.0
2022-09-20T04:38:00.430Z,31.0
2022-09-20T04:39:00.297Z,30.7
2022-09-20T04:40:00.351Z,30.5
2022-09-20T04:41:00.303Z,30.6
2022-09-20T04:42:00.320Z,30.5
2022-09-20T04:43:00.294Z,30.4
2022-09-20T04:44:00.468Z,29.9
2022-09-20T04:45:00.418Z,29.9
2022-09-20T04:46:00.454Z,29.8
2022-09-20T04:47:00.354Z,29.7
2022-09-20T04:48:00.287Z,29.6
2022-09-20T04:49:00.308Z,29.6
2022-09-20T04:50:00.425Z,29.4
2022-09-20T04:51:00.310Z,29.5
2022-09-20T04:52:00.309Z,29.3
2022-09-20T04:53:00.289Z,28.6
2022-09-20T04:54:00.294Z,28.7
2022-09-20T04:55:00.300Z,28.3
2022-09-20T04:56:00.407Z,28.2
2022-09-20T04:57:00.307Z,28.3
2022-09-20T04:58:00.320Z,27.9
2022-09-20T04:59:00.314Z,27.2
2022-09-20T05:00:00.310Z,24.4
2022-09-20T05:01:00.491Z,20.6
2022-09-20T05:02:00.480Z,18.0
2022-09-20T05:03:00.290Z,16.8
2022-09-20T05:04:00.298Z,15.3
2022-09-20T05:05:00.300Z,13.8
2022-09-20T05:06:00.338Z,13.3
2022-09-20T05:07:00.367Z,12.5
2022-09-20T05:08:00.520Z,11.5
2022-09-20T05:09:00.448Z,11.0
2022-09-20T05:10:00.332Z,10.4
2022-09-20T05:11:00.289Z,9.7
2022-09-20T05:12:00.281Z,9.3
2022-09-20T05:13:00.293Z,8.7
2022-09-20T05:14:00.472Z,7.9
2022-09-20T05:15:00.308Z,7.6
2022-09-20T05:16:00.450Z,7.1
2022-09-20T05:17:00.401Z,6.8
2022-09-20T05:18:00.291Z,6.5
2022-09-20T05:19:00.276Z,6.1
2022-09-20T05:20:00.429Z,5.8
2022-09-20T05:21:00.284Z,5.5
2022-09-20T05:22:00.319Z,4.9
2022-09-20T05:23:00.291Z,4.2
2022-09-20T05:24:00.294Z,3.5
2022-09-20T05:25:00.369Z,3.4
2022-09-20T05:26:00.599Z,3.9
2022-09-20T05:27:00.372Z,4.0
2022-09-20T05:28:00.302Z,4.2
2022-09-20T05:29:00.706Z,3.9
2022-09-20T05:30:04.289Z,3.0
2022-09-20T05:31:00.466Z,2.0
2022-09-20T05:32:00.469Z,2.5
2022-09-20T05:33:00.311Z,2.5
2022-09-20T05:34:00.300Z,2.5
2022-09-20T05:35:00.299Z,2.9
2022-09-20T05:36:00.311Z,2.8
2022-09-20T05:37:00.305Z,2.6
2022-09-20T05:38:00.489Z,2.5
2022-09-20T05:39:02.883Z,2.1
2022-09-20T05:40:00.418Z,1.3
2022-09-20T05:41:00.320Z,1.1
2022-09-20T05:42:00.320Z,1.4
2022-09-20T05:43:00.287Z,1.6
2022-09-20T05:44:00.466Z,1.4
2022-09-20T05:45:00.310Z,1.4
2022-09-20T05:46:00.337Z,1.3
2022-09-20T05:47:00.356Z,0.9
2022-09-20T05:48:00.296Z,0.7
2022-09-20T05:49:00.311Z,0.8
2022-09-20T05:50:00.520Z,1.1
2022-09-20T05:51:03.599Z,0.9
2022-09-20T05:52:00.301Z,0.6
2022-09-20T05:53:00.315Z,0.2
2022-09-20T05:54:00.306Z,0.4
2022-09-20T05:55:00.342Z,0.3
2022-09-20T05:56:00.492Z,0.6
2022-09-20T05:57:00.295Z,0.5
2022-09-20T05:58:00.302Z,0.4
2022-09-20T05:59:00.281Z,-0.2
2022-09-20T06:00:00.297Z,0.2
2022-09-20T06:01:00.364Z,0.0
2022-09-20T06:02:00.567Z,0.1
2022-09-20T06:03:00.302Z,-0.3
2022-09-20T06:04:00.284Z,-0.2
2022-09-20T06:05:00.323Z,0.0
2022-09-20T06:06:00.300Z,-0.0
2022-09-20T06:07:00.277Z,-0.1
2022-09-20T06:08:00.442Z,-0.2
2022-09-20T06:09:00.281Z,-0.3
2022-09-20T06:10:00.330Z,-0.2
2022-09-20T06:11:00.321Z,-0.5
2022-09-20T06:12:00.315Z,-0.2
2022-09-20T06:13:00.279Z,-0.3
2022-09-20T06:14:00.473Z,-0.9
2022-09-20T06:15:00.285Z,-0.7
2022-09-20T06:16:00.297Z,-0.6
2022-09-20T06:17:00.454Z,-0.7
2022-09-20T06:18:00.285Z,-0.8
2022-09-20T06:19:00.307Z,-0.5
2022-09-20T06:20:00.475Z,-0.8
2022-09-20T06:21:00.320Z,-0.6
2022-09-20T06:22:03.618Z,-0.5
2022-09-20T06:23:00.387Z,-0.5
2022-09-20T06:24:00.289Z,-0.6
2022-09-20T06:25:00.307Z,-0.5
2022-09-20T06:26:00.503Z,-0.4
2022-09-20T06:27:00.450Z,-1.1
2022-09-20T06:28:00.326Z,-1.0
2022-09-20T06:29:00.370Z,-0.6
2022-09-20T06:30:00.317Z,-1.2
2022-09-20T06:31:00.542Z,-1.0
2022-09-20T06:32:00.552Z,-1.1
2022-09-20T06:33:00.315Z,-0.5
2022-09-20T06:34:00.280Z,-0.4
2022-09-20T06:35:00.288Z,-0.9
2022-09-20T06:36:00.301Z,-0.8
2022-09-20T06:37:00.313Z,-0.5
2022-09-20T06:38:00.532Z,-1.0
2022-09-20T06:39:00.295Z,-0.7
2022-09-20T06:40:00.403Z,-0.7
2022-09-20T06:41:00.295Z,-0.6
2022-09-20T06:42:00.290Z,-0.9
2022-09-20T06:43:00.340Z,-0.9
2022-09-20T06:44:00.621Z,-1.1
2022-09-20T06:45:00.304Z,-0.8
2022-09-20T06:46:00.414Z,-1.3
2022-09-20T06:47:00.309Z,-1.4
2022-09-20T06:48:00.488Z,-1.2
2022-09-20T06:49:00.310Z,-1.2
2022-09-20T06:50:00.562Z,-1.3
2022-09-20T06:51:00.314Z,-1.2
2022-09-20T06:52:00.291Z,-1.4
2022-09-20T06:53:00.289Z,-1.4
2022-09-20T06:54:00.284Z,-1.4
2022-09-20T06:55:00.303Z,-1.5
2022-09-20T06:56:00.435Z,-1.5
2022-09-20T06:57:00.296Z,-1.3
2022-09-20T06:58:00.323Z,-1.3
2022-09-20T06:59:00.312Z,-1.3
2022-09-20T07:00:00.307Z,-1.3
2022-09-20T07:01:00.359Z,-1.2
2022-09-20T07:02:00.650Z,-1.2
2022-09-20T07:03:00.490Z,-1.6
2022-09-20T07:04:00.431Z,-1.4
2022-09-20T07:05:00.317Z,-1.2
2022-09-20T07:06:00.298Z,-1.2
2022-09-20T07:07:00.296Z,-1.2
2022-09-20T07:08:00.457Z,-1.3
2022-09-20T07:09:00.306Z,-1.1
2022-09-20T07:10:00.319Z,-1.3
2022-09-20T07:11:00.373Z,-1.4
2022-09-20T07:12:00.346Z,-1.6
2022-09-20T07:13:00.364Z,-1.5
2022-09-20T07:14:00.435Z,-1.1
2022-09-20T07:15:00.300Z,-0.8
2022-09-20T07:16:00.366Z,-0.7
2022-09-20T07:17:00.302Z,-1.1
2022-09-20T07:18:00.289Z,-0.9
2022-09-20T07:19:00.586Z,-0.9
2022-09-20T07:20:00.578Z,-0.8
2022-09-20T07:21:00.298Z,-0.8
2022-09-20T07:22:00.303Z,-0.7
2022-09-20T07:23:00.287Z,-0.6
2022-09-20T07:24:00.309Z,-0.6
2022-09-20T07:25:00.313Z,-0.8
2022-09-20T07:26:00.721Z,-1.1
2022-09-20T07:27:00.298Z,-1.0
2022-09-20T07:28:00.303Z,-1.1
2022-09-20T07:29:00.289Z,-1.3
2022-09-20T07:30:00.296Z,-1.2
2022-09-20T07:31:00.299Z,-1.5
2022-09-20T07:32:00.572Z,-1.7
2022-09-20T07:33:00.293Z,-1.5
2022-09-20T07:34:00.310Z,-1.2
2022-09-20T07:35:00.515Z,-1.2
2022-09-20T07:36:00.296Z,-1.2
2022-09-20T07:37:00.297Z,-1.4
2022-09-20T07:38:00.432Z,-1.3
2022-09-20T07:39:00.314Z,-1.5
2022-09-20T07:40:00.397Z,-1.5
2022-09-20T07:41:00.304Z,-1.9
2022-09-20T07:42:00.309Z,-2.3
2022-09-20T07:43:00.281Z,-2.4
2022-09-20T07:44:00.453Z,-2.4
2022-09-20T07:45:00.306Z,-2.2
2022-09-20T07:46:00.340Z,-1.9
2022-09-20T07:47:00.308Z,-1.8
2022-09-20T07:48:00.329Z,-2.6
2022-09-20T07:49:00.290Z,-3.0
2022-09-20T07:50:00.484Z,-3.1
2022-09-20T07:51:00.359Z,-2.9
2022-09-20T07:52:00.358Z,-1.8
2022-09-20T07:53:00.299Z,-1.6
2022-09-20T07:54:00.313Z,-1.2
2022-09-20T07:55:00.351Z,-1.1
2022-09-20T07:56:00.495Z,-1.1
2022-09-20T07:57:00.357Z,-1.6
2022-09-20T07:58:00.293Z,-2.0
2022-09-20T07:59:00.295Z,-1.9
2022-09-20T08:00:00.304Z,-1.7
2022-09-20T08:01:01.070Z,-1.8
2022-09-20T08:02:00.342Z,-2.2
2022-09-20T08:03:00.315Z,-2.4
2022-09-20T08:04:00.297Z,-2.6
2022-09-20T08:05:00.313Z,-2.3
2022-09-20T08:06:00.466Z,-2.0
2022-09-20T08:07:00.618Z,-2.0
2022-09-20T08:08:00.308Z,-2.0
2022-09-20T08:09:00.319Z,-2.0
2022-09-20T08:10:00.313Z,-2.4
2022-09-20T08:11:00.316Z,-2.5
2022-09-20T08:14:05.143Z,-2.9
2022-09-20T08:14:08.365Z,-2.5
2022-09-20T08:15:00.304Z,-2.4
2022-09-20T08:16:00.311Z,-2.3
2022-09-20T08:17:00.413Z,-2.2
2022-09-20T08:18:00.308Z,-2.1
2022-09-20T08:19:00.507Z,-2.1
2022-09-20T08:20:00.313Z,-2.2
2022-09-20T08:21:00.433Z,-2.3
2022-09-20T08:22:00.327Z,-2.4
2022-09-20T08:23:22.177Z,-2.7
2022-09-20T08:24:00.316Z,-2.7
2022-09-20T08:25:00.690Z,-2.5
2022-09-20T08:26:00.305Z,-2.1
2022-09-20T08:27:00.332Z,-2.1
2022-09-20T08:28:00.382Z,-1.9
2022-09-20T08:29:00.320Z,-1.8
2022-09-20T08:30:00.367Z,-1.9
2022-09-20T08:31:00.536Z,-2.1
2022-09-20T08:32:00.329Z,-2.1
2022-09-20T08:33:00.303Z,-2.1
2022-09-20T08:34:00.299Z,-2.1
2022-09-20T08:35:00.302Z,-2.0
2022-09-20T08:36:00.410Z,-2.0
2022-09-20T08:37:00.411Z,-2.1
2022-09-20T08:39:57.198Z,-2.1
2022-09-20T08:40:00.577Z,-2.4
2022-09-20T08:41:00.303Z,-2.5
2022-09-20T08:42:00.300Z,-2.4
2022-09-20T08:43:00.853Z,-2.3
2022-09-20T08:44:00.388Z,-2.3
2022-09-20T08:45:00.730Z,-2.3
2022-09-20T08:46:05.434Z,-2.3
2022-09-20T08:47:00.297Z,-2.2
2022-09-20T08:48:00.290Z,-2.3
2022-09-20T08:49:00.539Z,-2.4
2022-09-20T08:50:00.771Z,-2.7
2022-09-20T08:51:05.518Z,-2.7
2022-09-20T08:52:00.369Z,-3.2
2022-09-20T08:53:00.506Z,-3.3
2022-09-20T08:54:00.315Z,-3.7
2022-09-20T08:55:00.396Z,-3.5
2022-09-20T08:56:00.313Z,-3.3
2022-09-20T08:57:00.301Z,-3.1
2022-09-20T08:58:02.942Z,-3.1
2022-09-20T08:59:00.393Z,-3.0
2022-09-20T09:00:00.305Z,-2.9
2022-09-20T09:01:00.575Z,-2.6
2022-09-20T09:02:00.343Z,-2.6
2022-09-20T09:03:00.316Z,-2.8
2022-09-20T09:04:00.300Z,-2.8
2022-09-20T09:05:00.298Z,-2.5
2022-09-20T09:06:00.425Z,-2.5
2022-09-20T09:07:00.494Z,-2.5
2022-09-20T09:08:00.297Z,-2.7
2022-09-20T09:09:00.300Z,-3.1
2022-09-20T09:10:00.308Z,-2.9
2022-09-20T09:11:00.305Z,-2.8
2022-09-20T09:12:00.296Z,-2.7
2022-09-20T09:13:00.521Z,-2.6
2022-09-20T09:14:00.356Z,-2.9
2022-09-20T09:15:00.295Z,-2.8
2022-09-20T09:16:00.333Z,-3.0
2022-09-20T09:17:00.430Z,-3.2
2022-09-20T09:18:00.312Z,-3.3
2022-09-20T09:19:00.595Z,-2.9
2022-09-20T09:20:00.298Z,-2.9
2022-09-20T09:21:00.287Z,-2.9
2022-09-20T09:22:00.292Z,-2.9
2022-09-20T09:23:00.364Z,-2.9
2022-09-20T09:24:00.297Z,-2.9
2022-09-20T09:25:00.392Z,-2.7
2022-09-20T09:26:00.287Z,-3.0
2022-09-20T09:27:00.300Z,-3.0
2022-09-20T09:28:00.305Z,-3.0
2022-09-20T09:29:00.277Z,-2.9
2022-09-20T09:30:00.272Z,-3.0
2022-09-20T09:31:00.449Z,-3.2
2022-09-20T09:32:00.314Z,-3.3
2022-09-20T09:33:00.310Z,-3.0
2022-09-20T09:34:00.256Z,-3.0
2022-09-20T09:35:00.316Z,-3.4
2022-09-20T09:36:00.290Z,-3.7
2022-09-20T09:37:00.408Z,-3.2
2022-09-20T09:38:00.301Z,-3.2
2022-09-20T09:39:00.532Z,-2.7
2022-09-20T09:40:00.364Z,-2.7
2022-09-20T09:41:00.264Z,-2.8
2022-09-20T09:42:00.275Z,-2.8
2022-09-20T09:43:00.434Z,-2.7
2022-09-20T09:44:00.296Z,-2.8
2022-09-20T09:45:00.291Z,-2.7
2022-09-20T09:46:00.351Z,-2.6
2022-09-20T09:47:00.286Z,-2.5
2022-09-20T09:48:00.277Z,-2.4
2022-09-20T09:49:00.453Z,-2.8
2022-09-20T09:50:03.797Z,-2.7
2022-09-20T09:51:00.288Z,-2.8
2022-09-20T09:52:00.263Z,-2.6
2022-09-20T09:53:00.275Z,-2.9
2022-09-20T09:54:00.326Z,-2.8
2022-09-20T09:55:03.889Z,-3.5
2022-09-20T09:56:00.277Z,-3.8
2022-09-20T09:57:00.303Z,-3.4
2022-09-20T09:58:00.268Z,-3.6
2022-09-20T09:59:00.285Z,-3.2
2022-09-20T10:00:01.462Z,-3.1
2022-09-20T10:01:00.522Z,-2.8
2022-09-20T10:02:00.285Z,-2.7
2022-09-20T10:03:00.246Z,-2.6
2022-09-20T10:04:00.281Z,-2.7
2022-09-20T10:05:00.331Z,-2.1
2022-09-20T10:06:00.295Z,-2.4
2022-09-20T10:07:00.426Z,-1.9
2022-09-20T10:08:00.290Z,-2.0
2022-09-20T10:09:00.251Z,-1.6
2022-09-20T10:10:00.256Z,-1.5
2022-09-20T10:11:00.488Z,-1.8
2022-09-20T10:12:00.307Z,-1.4
2022-09-20T10:13:00.483Z,-1.3
2022-09-20T10:14:00.258Z,-1.3
2022-09-20T10:15:00.248Z,-1.1
2022-09-20T10:16:00.336Z,-1.2
2022-09-20T10:17:00.283Z,-1.5
2022-09-20T10:18:00.275Z,-0.7
2022-09-20T10:19:00.568Z,-0.9
2022-09-20T10:20:00.294Z,-1.1
2022-09-20T10:21:00.264Z,-0.9
2022-09-20T10:22:00.291Z,-0.9
2022-09-20T10:23:34.348Z,-0.4
2022-09-20T10:24:04.310Z,-0.2
2022-09-20T10:25:00.453Z,0.1
2022-09-20T10:26:00.520Z,0.2
2022-09-20T10:27:00.347Z,0.4
2022-09-20T10:28:00.303Z,0.7
2022-09-20T10:29:00.280Z,0.9
2022-09-20T10:30:00.268Z,0.7
2022-09-20T10:31:00.440Z,1.1
2022-09-20T10:32:00.278Z,1.2
2022-09-20T10:33:00.258Z,1.6
2022-09-20T10:34:00.287Z,1.8
2022-09-20T10:35:00.263Z,1.8
2022-09-20T10:36:00.249Z,1.5
2022-09-20T10:37:00.450Z,1.8
2022-09-20T10:38:00.275Z,2.0
2022-09-20T10:39:00.274Z,1.9
2022-09-20T10:40:00.427Z,2.0
2022-09-20T10:41:00.412Z,1.6
2022-09-20T10:42:00.286Z,2.0
2022-09-20T10:43:00.520Z,1.8
2022-09-20T10:44:04.925Z,2.0
2022-09-20T10:45:00.285Z,2.3
2022-09-20T10:46:27.567Z,2.4
2022-09-20T10:47:00.385Z,2.7
2022-09-20T10:48:00.304Z,2.9
2022-09-20T10:49:00.514Z,2.1
2022-09-20T10:50:00.318Z,2.3
2022-09-20T10:51:00.272Z,2.4
2022-09-20T10:52:00.269Z,2.3
2022-09-20T10:53:00.288Z,2.1
2022-09-20T10:54:00.323Z,2.5
2022-09-20T10:55:00.453Z,2.3
2022-09-20T10:56:00.279Z,2.7
2022-09-20T10:57:00.267Z,3.1
2022-09-20T10:58:00.314Z,2.8
2022-09-20T10:59:00.406Z,2.9
2022-09-20T11:00:00.370Z,2.6
2022-09-20T11:01:00.563Z,3.1
2022-09-20T11:02:00.386Z,2.6
2022-09-20T11:03:00.282Z,2.9
2022-09-20T11:04:00.305Z,2.9
2022-09-20T11:05:00.261Z,3.0
2022-09-20T11:06:00.252Z,2.7
2022-09-20T11:07:00.480Z,2.8
2022-09-20T11:08:00.264Z,2.9
2022-09-20T11:09:00.265Z,2.8
2022-09-20T11:10:00.250Z,3.4
2022-09-20T11:11:00.304Z,2.8
2022-09-20T11:12:00.235Z,3.0
2022-09-20T11:13:00.382Z,2.7
2022-09-20T11:14:00.269Z,3.0
2022-09-20T11:15:00.387Z,3.1
2022-09-20T11:16:00.254Z,3.2
2022-09-20T11:17:00.448Z,2.9
2022-09-20T11:18:00.248Z,3.1
2022-09-20T11:19:00.442Z,2.9
2022-09-20T11:20:04.719Z,3.2
2022-09-20T11:21:00.315Z,3.7
2022-09-20T11:22:00.398Z,3.2
2022-09-20T11:23:00.338Z,3.2
2022-09-20T11:24:00.356Z,2.5
2022-09-20T11:25:00.484Z,2.8
2022-09-20T11:26:00.335Z,2.5
2022-09-20T11:27:00.325Z,3.0
2022-09-20T11:28:00.301Z,3.0
2022-09-20T11:29:00.292Z,3.0
2022-09-20T11:30:00.555Z,3.1
2022-09-20T11:31:00.594Z,3.0
2022-09-20T11:32:00.364Z,3.1
2022-09-20T11:33:00.325Z,3.4
2022-09-20T11:34:00.295Z,3.1
2022-09-20T11:35:00.347Z,3.5
2022-09-20T11:36:00.303Z,3.1
2022-09-20T11:37:00.518Z,2.6
2022-09-20T11:38:00.326Z,2.8
2022-09-20T11:39:01.453Z,2.8
2022-09-20T11:40:00.455Z,3.8
2022-09-20T11:41:00.293Z,2.7
2022-09-20T11:42:00.314Z,2.9
2022-09-20T11:43:00.458Z,2.9
2022-09-20T11:44:00.360Z,2.8
2022-09-20T11:45:00.372Z,2.9
2022-09-20T11:46:00.559Z,2.9
2022-09-20T11:47:00.413Z,2.9
2022-09-20T11:48:00.331Z,3.0
2022-09-20T11:49:00.448Z,3.3
2022-09-20T11:50:00.321Z,3.6
2022-09-20T11:51:00.332Z,3.5
2022-09-20T11:52:00.315Z,3.2
2022-09-20T11:53:00.323Z,3.1
2022-09-20T11:54:00.321Z,3.3
2022-09-20T11:55:00.526Z,3.3
2022-09-20T11:56:00.333Z,3.2
2022-09-20T11:57:00.314Z,3.4
2022-09-20T11:58:00.316Z,3.1
2022-09-20T11:59:00.303Z,3.2
2022-09-20T12:00:00.351Z,3.5
2022-09-20T12:01:00.564Z,4.1
2022-09-20T12:02:00.506Z,2.5
2022-09-20T12:03:00.690Z,3.3
2022-09-20T12:04:21.052Z,4.2
2022-09-20T12:05:00.293Z,3.9
2022-09-20T12:06:00.293Z,2.5
2022-09-20T12:07:03.489Z,3.9
2022-09-20T12:08:00.312Z,3.2
2022-09-20T12:09:00.309Z,3.8
2022-09-20T12:10:00.306Z,3.0
2022-09-20T12:11:00.303Z,3.5
2022-09-20T12:12:00.295Z,3.3
2022-09-20T12:13:00.447Z,3.6
2022-09-20T12:14:00.313Z,3.6
2022-09-20T12:15:00.369Z,3.6
2022-09-20T12:16:00.277Z,3.7
2022-09-20T12:17:00.302Z,3.9
2022-09-20T12:18:01.268Z,4.5
2022-09-20T12:19:00.515Z,4.9
2022-09-20T12:20:00.327Z,4.3
2022-09-20T12:21:00.309Z,4.4
2022-09-20T12:22:00.307Z,4.6
2022-09-20T12:23:00.321Z,4.0
2022-09-20T12:24:00.284Z,3.5
2022-09-20T12:25:00.429Z,3.6
2022-09-20T12:26:00.315Z,4.0
2022-09-20T12:27:00.315Z,4.0
2022-09-20T12:28:00.348Z,3.6
2022-09-20T12:29:00.306Z,3.6
2022-09-20T12:30:00.333Z,3.7
2022-09-20T12:31:00.645Z,3.7
2022-09-20T12:32:00.361Z,4.0
2022-09-20T12:33:00.344Z,4.0
2022-09-20T12:34:00.615Z,4.2
2022-09-20T12:35:00.384Z,4.5
2022-09-20T12:36:00.307Z,4.7
2022-09-20T12:37:00.467Z,4.5
2022-09-20T12:38:00.296Z,4.3
2022-09-20T12:39:00.317Z,4.1
2022-09-20T12:40:00.361Z,3.9
2022-09-20T12:41:00.321Z,4.0
2022-09-20T12:42:00.304Z,3.8
2022-09-20T12:43:00.450Z,3.4
2022-09-20T12:44:00.303Z,3.2
2022-09-20T12:45:00.303Z,3.2
2022-09-20T12:46:05.399Z,3.6
2022-09-20T12:47:00.315Z,3.6
2022-09-20T12:48:00.299Z,3.6
2022-09-20T12:49:00.473Z,3.8
2022-09-20T12:50:00.401Z,4.1
2022-09-20T12:51:00.289Z,4.2
2022-09-20T12:52:00.315Z,4.4
2022-09-20T12:53:00.365Z,4.8
2022-09-20T12:54:00.281Z,5.0
2022-09-20T12:55:04.706Z,4.9
2022-09-20T12:56:00.307Z,5.2
2022-09-20T12:57:00.301Z,4.6
2022-09-20T12:58:00.300Z,3.9
2022-09-20T12:59:00.308Z,4.3
2022-09-20T13:00:00.313Z,4.8
2022-09-20T13:01:00.594Z,4.3
2022-09-20T13:02:00.353Z,4.5
2022-09-20T13:03:00.295Z,4.1
2022-09-20T13:04:00.292Z,4.0
2022-09-20T13:05:00.415Z,4.2
2022-09-20T13:06:00.299Z,4.0
2022-09-20T13:07:00.393Z,4.0
2022-09-20T13:08:00.306Z,4.3
2022-09-20T13:09:00.297Z,4.4
2022-09-20T13:10:00.324Z,4.5
2022-09-20T13:11:00.299Z,4.5
2022-09-20T13:12:00.322Z,4.6
2022-09-20T13:13:00.432Z,4.6
2022-09-20T13:14:00.306Z,5.2
2022-09-20T13:15:00.356Z,4.5
2022-09-20T13:16:00.371Z,4.3
2022-09-20T13:17:00.336Z,4.0
2022-09-20T13:18:00.311Z,4.0
2022-09-20T13:19:00.508Z,4.1
2022-09-20T13:20:00.392Z,4.4
2022-09-20T13:21:00.456Z,4.1
2022-09-20T13:22:00.311Z,3.8
2022-09-20T13:23:00.669Z,4.0
2022-09-20T13:24:00.297Z,4.4
2022-09-20T13:25:00.391Z,4.7
2022-09-20T13:26:00.310Z,4.1
2022-09-20T13:27:00.305Z,4.1
2022-09-20T13:28:00.295Z,4.7